createdAt,value
2018-12-29T00:00:54.754Z,91.20
2018-12-29T00:03:24.123Z,91.30
2018-12-29T00:06:05.450Z,91.40
2018-12-29T00:08:35.372Z,91.40
2018-12-29T00:11:05.011Z,91.30
2018-12-29T00:13:34.606Z,91.40
2018-12-29T00:16:03.993Z,91.70
2018-12-29T00:18:33.272Z,91.50
2018-12-29T00:21:02.827Z,91.70
2018-12-29T00:23:32.683Z,91.80
2018-12-29T00:26:02.379Z,91.90
2018-12-29T00:28:32.152Z,92.00
2018-12-29T00:31:01.507Z,92.10
2018-12-29T00:33:30.839Z,92.20
2018-12-29T00:36:00.522Z,92.20
2018-12-29T00:38:30.238Z,92.10
2018-12-29T00:40:59.544Z,92.00
2018-12-29T00:43:29.461Z,92.00
2018-12-29T00:45:59.028Z,92.20
2018-12-29T00:48:28.318Z,92.10
2018-12-29T00:50:57.589Z,92.40
2018-12-29T00:53:26.868Z,92.20
2018-12-29T00:55:56.441Z,92.20
2018-12-29T00:58:26.008Z,92.00
2018-12-29T01:00:55.338Z,92.20
2018-12-29T01:03:24.916Z,92.00
2018-12-29T01:05:54.839Z,91.90
2018-12-29T01:08:24.585Z,92.10
2018-12-29T01:10:54.208Z,92.20
2018-12-29T01:13:23.505Z,92.30
2018-12-29T01:15:55.269Z,92.50
2018-12-29T01:18:24.619Z,92.90
2018-12-29T01:20:53.917Z,92.50
2018-12-29T01:23:23.383Z,92.50
2018-12-29T01:25:52.995Z,92.50
2018-12-29T01:28:22.643Z,92.60
2018-12-29T01:30:51.919Z,92.60
2018-12-29T01:33:21.221Z,92.70
2018-12-29T01:35:50.528Z,92.90
2018-12-29T01:38:19.865Z,92.90
2018-12-29T01:40:49.454Z,93.00
2018-12-29T01:43:18.836Z,93.20
2018-12-29T01:45:48.711Z,93.30
2018-12-29T01:48:18.001Z,93.20
2018-12-29T01:50:47.331Z,93.30
2018-12-29T01:53:16.633Z,93.40
2018-12-29T01:55:45.911Z,93.30
2018-12-29T01:58:15.199Z,93.60
2018-12-29T02:00:44.902Z,93.60
2018-12-29T02:03:14.834Z,93.70
2018-12-29T02:05:44.131Z,93.70
2018-12-29T02:08:13.818Z,93.60
2018-12-29T02:10:43.393Z,93.60
2018-12-29T02:13:12.753Z,93.50
2018-12-29T02:15:42.390Z,93.60
2018-12-29T02:18:11.775Z,93.80
2018-12-29T02:20:41.062Z,93.60
2018-12-29T02:23:10.892Z,93.70
2018-12-29T02:25:40.263Z,93.60
2018-12-29T02:28:09.557Z,93.40
2018-12-29T02:30:39.240Z,93.20
2018-12-29T02:33:08.518Z,93.10
2018-12-29T02:35:37.811Z,93.20
2018-12-29T02:38:07.094Z,93.30
2018-12-29T02:40:38.006Z,93.50
2018-12-29T02:43:07.569Z,93.50
2018-12-29T02:45:37.160Z,93.50
2018-12-29T02:48:06.994Z,93.40
2018-12-29T02:50:36.686Z,93.40
2018-12-29T02:53:05.980Z,93.40
2018-12-29T02:55:35.961Z,93.50
2018-12-29T02:58:05.253Z,93.80
2018-12-29T03:00:34.860Z,93.80
2018-12-29T03:03:04.110Z,93.80
2018-12-29T03:05:34.032Z,94.20
2018-12-29T03:08:03.661Z,93.80
2018-12-29T03:10:33.276Z,93.60
2018-12-29T03:13:02.552Z,93.50
2018-12-29T03:15:31.922Z,93.40
2018-12-29T03:18:01.684Z,93.50
2018-12-29T03:20:31.289Z,93.50
2018-12-29T03:23:00.565Z,93.50
2018-12-29T03:25:29.914Z,93.50
2018-12-29T03:27:59.437Z,93.70
2018-12-29T03:30:28.737Z,94.00
2018-12-29T03:32:58.022Z,94.20
2018-12-29T03:35:27.278Z,94.30
2018-12-29T03:37:56.571Z,94.50
2018-12-29T03:40:26.180Z,94.70
2018-12-29T03:42:55.499Z,94.80
2018-12-29T03:45:25.127Z,95.20
2018-12-29T03:47:54.475Z,94.90
2018-12-29T03:50:23.756Z,95.10
2018-12-29T03:52:53.067Z,95.10
2018-12-29T03:55:22.648Z,95.10
2018-12-29T03:57:51.932Z,95.10
2018-12-29T04:00:21.202Z,95.10
2018-12-29T04:02:50.481Z,95.20
2018-12-29T04:05:19.744Z,95.40
2018-12-29T04:07:49.062Z,95.40
2018-12-29T04:10:18.983Z,95.60
2018-12-29T04:12:52.463Z,95.70
2018-12-29T04:15:21.850Z,95.80
2018-12-29T04:17:51.137Z,95.80
2018-12-29T04:20:20.470Z,96.10
2018-12-29T04:22:49.783Z,96.00
2018-12-29T04:25:23.395Z,96.30
2018-12-29T04:27:53.358Z,96.50
2018-12-29T04:30:22.638Z,96.40
2018-12-29T04:32:51.982Z,96.50
2018-12-29T04:35:21.584Z,96.60
2018-12-29T04:37:50.911Z,96.40
2018-12-29T04:40:21.122Z,96.40
2018-12-29T04:42:50.678Z,96.60
2018-12-29T04:45:20.267Z,96.80
2018-12-29T04:47:49.543Z,96.80
2018-12-29T04:50:18.842Z,96.80
2018-12-29T04:52:48.459Z,96.80
2018-12-29T04:55:17.736Z,96.90
2018-12-29T04:57:47.263Z,97.10
2018-12-29T05:00:16.888Z,97.00
2018-12-29T05:02:46.432Z,96.90
2018-12-29T05:05:16.019Z,96.90
2018-12-29T05:07:45.305Z,96.90
2018-12-29T05:10:14.607Z,97.10
2018-12-29T05:12:43.872Z,97.30
2018-12-29T05:15:14.110Z,97.40
2018-12-29T05:17:43.383Z,97.50
2018-12-29T05:20:12.655Z,97.60
2018-12-29T05:22:42.208Z,97.50
2018-12-29T05:25:11.490Z,97.90
2018-12-29T05:27:41.024Z,97.60
2018-12-29T05:30:10.394Z,97.80
2018-12-29T05:32:39.693Z,97.80
2018-12-29T05:35:09.248Z,97.80
2018-12-29T05:37:38.542Z,97.90
2018-12-29T05:40:07.836Z,98.10
2018-12-29T05:42:37.727Z,98.00
2018-12-29T05:45:06.981Z,98.10
2018-12-29T05:47:36.275Z,98.20
2018-12-29T05:50:06.118Z,98.10
2018-12-29T05:52:35.514Z,98.20
2018-12-29T05:55:04.843Z,98.20
2018-12-29T05:57:34.155Z,98.30
2018-12-29T06:00:03.824Z,98.30
2018-12-29T06:02:33.400Z,98.20
2018-12-29T06:05:02.943Z,98.20
2018-12-29T06:07:32.275Z,98.30
2018-12-29T06:10:01.578Z,98.20
2018-12-29T06:12:30.882Z,98.10
2018-12-29T06:15:00.241Z,98.20
2018-12-29T06:17:29.787Z,98.40
2018-12-29T06:19:59.155Z,98.30
2018-12-29T06:22:28.727Z,98.20
2018-12-29T06:24:58.008Z,98.40
2018-12-29T06:27:27.303Z,98.30
2018-12-29T06:29:56.884Z,98.30
2018-12-29T06:32:26.163Z,98.00
2018-12-29T06:34:55.442Z,98.10
2018-12-29T06:37:25.046Z,98.30
2018-12-29T06:39:54.692Z,98.40
2018-12-29T06:42:24.767Z,98.50
2018-12-29T06:44:54.099Z,98.70
2018-12-29T06:47:23.388Z,98.90
2018-12-29T06:49:52.928Z,98.70
2018-12-29T06:52:22.221Z,98.80
2018-12-29T06:54:51.588Z,98.80
2018-12-29T06:57:20.922Z,99.20
2018-12-29T06:59:50.520Z,98.90
2018-12-29T07:02:20.075Z,99.00
2018-12-29T07:04:49.362Z,99.10
2018-12-29T07:07:18.654Z,99.00
2018-12-29T07:09:48.222Z,99.00
2018-12-29T07:12:17.816Z,99.10
2018-12-29T07:14:47.147Z,99.20
2018-12-29T07:17:16.424Z,99.20
2018-12-29T07:19:46.059Z,99.10
2018-12-29T07:22:15.630Z,99.20
2018-12-29T07:24:44.920Z,99.20
2018-12-29T07:27:14.195Z,99.10
2018-12-29T07:29:43.555Z,99.20
2018-12-29T07:32:13.392Z,99.10
2018-12-29T07:34:42.675Z,99.20
2018-12-29T07:37:11.986Z,99.20
2018-12-29T07:39:41.391Z,99.30
2018-12-29T07:42:10.688Z,99.40
2018-12-29T07:44:40.329Z,99.40
2018-12-29T07:47:09.971Z,99.50
2018-12-29T07:49:39.261Z,99.50
2018-12-29T07:52:08.946Z,99.30
2018-12-29T07:54:38.239Z,99.30
2018-12-29T07:57:07.536Z,99.40
2018-12-29T07:59:36.832Z,99.30
2018-12-29T08:02:06.384Z,99.10
2018-12-29T08:04:35.646Z,99.30
2018-12-29T08:07:05.057Z,99.10
2018-12-29T08:09:34.371Z,99.20
2018-12-29T08:12:04.220Z,99.30
2018-12-29T08:14:33.510Z,99.50
2018-12-29T08:17:03.154Z,99.30
2018-12-29T08:19:33.056Z,99.30
2018-12-29T08:22:02.743Z,99.30
2018-12-29T08:24:32.320Z,99.30
2018-12-29T08:27:01.686Z,99.30
2018-12-29T08:29:30.986Z,99.20
2018-12-29T08:32:00.579Z,99.30
2018-12-29T08:34:29.936Z,99.20
2018-12-29T08:36:59.313Z,99.30
2018-12-29T08:39:28.626Z,99.50
2018-12-29T08:41:58.011Z,99.50
2018-12-29T08:44:27.333Z,99.40
2018-12-29T08:46:56.623Z,99.60
2018-12-29T08:49:26.303Z,99.10
2018-12-29T08:51:56.207Z,99.10
2018-12-29T08:54:26.109Z,99.30
2018-12-29T08:56:55.620Z,99.10
2018-12-29T08:59:25.199Z,99.10
2018-12-29T09:01:54.543Z,98.90
2018-12-29T09:04:23.930Z,98.90
2018-12-29T09:06:53.462Z,99.10
2018-12-29T09:09:23.078Z,99.10
2018-12-29T09:11:52.350Z,99.60
2018-12-29T09:14:21.900Z,99.30
2018-12-29T09:16:51.500Z,99.70
2018-12-29T09:19:27.153Z,99.20
2018-12-29T09:21:51.879Z,98.70
2018-12-29T09:24:21.175Z,99.00
2018-12-29T09:26:50.831Z,98.70
2018-12-29T09:29:20.405Z,98.90
2018-12-29T09:31:49.758Z,98.80
2018-12-29T09:34:22.397Z,98.90
2018-12-29T09:36:50.122Z,98.80
2018-12-29T09:39:19.432Z,98.60
2018-12-29T09:41:49.165Z,98.40
2018-12-29T09:44:18.533Z,98.20
2018-12-29T09:46:47.978Z,98.60
2018-12-29T09:49:17.699Z,98.20
2018-12-29T09:51:46.996Z,98.20
2018-12-29T09:54:16.989Z,97.90
2018-12-29T09:56:46.384Z,97.90
2018-12-29T09:59:15.767Z,97.60
2018-12-29T10:01:45.180Z,97.50
2018-12-29T10:04:14.626Z,98.30
2018-12-29T10:06:44.476Z,98.00
2018-12-29T10:09:14.047Z,97.90
2018-12-29T10:11:43.340Z,98.20
2018-12-29T10:14:13.015Z,98.00
2018-12-29T10:16:42.311Z,98.10
2018-12-29T10:19:11.970Z,97.80
2018-12-29T10:21:41.542Z,97.90
2018-12-29T10:24:10.910Z,97.80
2018-12-29T10:26:40.468Z,97.80
2018-12-29T10:29:10.111Z,97.70
2018-12-29T10:31:39.435Z,97.80
2018-12-29T10:34:09.105Z,97.30
2018-12-29T10:36:38.827Z,97.30
2018-12-29T10:39:08.810Z,97.40
2018-12-29T10:41:38.155Z,98.20
2018-12-29T10:44:07.787Z,97.90
2018-12-29T10:46:37.489Z,97.40
2018-12-29T10:49:07.000Z,97.10
2018-12-29T10:51:36.935Z,97.00
2018-12-29T10:54:06.695Z,97.10
2018-12-29T10:56:36.103Z,97.00
2018-12-29T10:59:05.655Z,97.10
2018-12-29T11:01:34.990Z,97.40
2018-12-29T11:04:04.300Z,97.20
2018-12-29T11:06:35.359Z,97.20
2018-12-29T11:09:07.037Z,97.10
2018-12-29T11:11:36.407Z,96.90
2018-12-29T11:14:05.827Z,96.70
2018-12-29T11:16:36.150Z,96.70
2018-12-29T11:19:05.475Z,96.70
2018-12-29T11:21:34.806Z,96.60
2018-12-29T11:24:04.083Z,97.00
2018-12-29T11:26:33.753Z,97.20
2018-12-29T11:29:03.583Z,97.40
2018-12-29T11:31:32.935Z,97.30
2018-12-29T11:34:02.833Z,97.00
2018-12-29T11:36:32.432Z,97.10
2018-12-29T11:39:01.788Z,97.30
2018-12-29T11:41:31.356Z,97.40
2018-12-29T11:44:00.670Z,97.10
2018-12-29T11:46:30.748Z,97.40
2018-12-29T11:49:00.057Z,97.30
2018-12-29T11:51:29.439Z,96.60
2018-12-29T11:53:59.069Z,96.00
2018-12-29T11:56:28.773Z,95.80
2018-12-29T11:58:58.132Z,96.00
2018-12-29T12:01:27.505Z,96.20
2018-12-29T12:03:57.548Z,96.10
2018-12-29T12:06:27.078Z,95.80
2018-12-29T12:08:56.767Z,95.90
2018-12-29T12:11:26.523Z,95.80
2018-12-29T12:13:55.935Z,95.70
2018-12-29T12:16:25.632Z,95.60
2018-12-29T12:18:54.931Z,95.60
2018-12-29T12:21:24.460Z,95.50
2018-12-29T12:23:54.051Z,95.40
2018-12-29T12:26:23.376Z,95.20
2018-12-29T12:28:52.752Z,95.50
2018-12-29T12:31:22.222Z,95.50
2018-12-29T12:33:51.617Z,95.60
2018-12-29T12:36:21.357Z,95.60
2018-12-29T12:38:51.220Z,95.60
2018-12-29T12:41:20.934Z,95.60
2018-12-29T12:43:50.273Z,95.30
2018-12-29T12:46:19.659Z,95.60
2018-12-29T12:48:49.439Z,95.70
2018-12-29T12:51:18.853Z,96.00
2018-12-29T12:53:48.417Z,96.40
2018-12-29T12:56:18.123Z,96.20
2018-12-29T12:58:47.402Z,96.50
2018-12-29T13:01:17.092Z,96.30
2018-12-29T13:03:46.528Z,96.00
2018-12-29T13:06:15.827Z,96.10
2018-12-29T13:08:45.181Z,96.20
2018-12-29T13:11:14.843Z,96.20
2018-12-29T13:13:44.659Z,96.40
2018-12-29T13:16:14.314Z,96.60
2018-12-29T13:18:43.998Z,96.40
2018-12-29T13:21:13.446Z,96.40
2018-12-29T13:23:43.213Z,96.30
2018-12-29T13:26:12.586Z,96.50
2018-12-29T13:28:42.035Z,96.30
2018-12-29T13:31:11.754Z,96.20
2018-12-29T13:33:41.135Z,96.10
2018-12-29T13:36:10.458Z,96.20
2018-12-29T13:38:40.103Z,96.20
2018-12-29T13:41:09.461Z,96.20
2018-12-29T13:43:38.852Z,95.90
2018-12-29T13:46:08.537Z,95.70
2018-12-29T13:48:38.432Z,95.60
2018-12-29T13:51:07.720Z,94.90
2018-12-29T13:53:37.060Z,95.20
2018-12-29T13:56:06.362Z,94.70
2018-12-29T13:58:35.825Z,94.50
2018-12-29T14:01:05.741Z,93.50
2018-12-29T14:03:35.107Z,93.80
2018-12-29T14:06:04.741Z,94.10
2018-12-29T14:08:34.183Z,93.50
2018-12-29T14:11:03.774Z,93.40
2018-12-29T14:13:33.583Z,93.30
2018-12-29T14:16:03.059Z,93.10
2018-12-29T14:18:32.691Z,93.20
2018-12-29T14:21:02.100Z,93.30
2018-12-29T14:23:31.702Z,93.20
2018-12-29T14:26:01.091Z,93.00
2018-12-29T14:28:30.467Z,92.80
2018-12-29T14:31:00.124Z,92.90
2018-12-29T14:33:29.511Z,93.00
2018-12-29T14:35:59.277Z,92.70
2018-12-29T14:38:28.648Z,92.60
2018-12-29T14:40:57.962Z,92.60
2018-12-29T14:43:27.223Z,92.70
2018-12-29T14:45:57.073Z,92.50
2018-12-29T14:48:26.492Z,92.60
2018-12-29T14:50:56.135Z,92.70
2018-12-29T14:53:25.773Z,92.80
2018-12-29T14:55:55.067Z,92.70
2018-12-29T14:58:24.370Z,92.80
2018-12-29T15:00:54.071Z,93.00
2018-12-29T15:03:23.687Z,92.70
2018-12-29T15:05:53.365Z,92.60
2018-12-29T15:08:23.106Z,92.80
2018-12-29T15:10:53.043Z,92.60
2018-12-29T15:13:23.108Z,92.70
2018-12-29T15:15:52.563Z,92.80
2018-12-29T15:18:22.259Z,92.40
2018-12-29T15:20:51.920Z,92.40
2018-12-29T15:23:21.311Z,92.30
2018-12-29T15:25:50.923Z,92.20
2018-12-29T15:28:21.106Z,92.20
2018-12-29T15:30:50.868Z,92.00
2018-12-29T15:33:20.277Z,92.00
2018-12-29T15:35:49.633Z,92.20
2018-12-29T15:38:19.022Z,92.20
2018-12-29T15:40:48.583Z,92.20
2018-12-29T15:43:19.729Z,92.20
2018-12-29T15:45:49.175Z,92.20
2018-12-29T15:48:18.760Z,92.00
2018-12-29T15:50:48.646Z,91.90
2018-12-29T15:53:18.303Z,92.10
2018-12-29T15:55:47.662Z,92.20
2018-12-29T15:58:17.432Z,92.40
2018-12-29T16:00:46.796Z,92.70
2018-12-29T16:03:16.465Z,93.00
2018-12-29T16:05:45.908Z,93.80
2018-12-29T16:08:15.540Z,93.90
2018-12-29T16:10:44.910Z,94.50
2018-12-29T16:13:14.250Z,95.30
2018-12-29T16:15:43.618Z,95.90
2018-12-29T16:18:12.944Z,96.40
2018-12-29T16:20:42.304Z,96.60
2018-12-29T16:23:11.924Z,96.50
2018-12-29T16:25:41.972Z,96.50
2018-12-29T16:28:11.654Z,96.30
2018-12-29T16:30:41.024Z,96.80
2018-12-29T16:33:10.375Z,97.10
2018-12-29T16:35:39.784Z,97.40
2018-12-29T16:38:09.321Z,97.60
2018-12-29T16:40:38.708Z,97.80
2018-12-29T16:43:08.371Z,97.80
2018-12-29T16:45:37.747Z,97.80
2018-12-29T16:48:07.410Z,97.80
2018-12-29T16:50:36.716Z,97.80
2018-12-29T16:53:06.121Z,97.90
2018-12-29T16:55:35.534Z,97.90
2018-12-29T16:58:05.260Z,97.80
2018-12-29T17:00:34.875Z,98.30
2018-12-29T17:03:04.536Z,98.40
2018-12-29T17:05:34.012Z,98.40
2018-12-29T17:08:03.630Z,98.30
2018-12-29T17:10:33.251Z,98.30
2018-12-29T17:13:03.057Z,98.30
2018-12-29T17:15:32.677Z,98.30
2018-12-29T17:18:02.351Z,98.20
2018-12-29T17:20:31.958Z,98.40
2018-12-29T17:23:01.335Z,98.30
2018-12-29T17:25:31.280Z,98.40
2018-12-29T17:28:01.272Z,98.40
2018-12-29T17:30:30.979Z,98.40
2018-12-29T17:33:00.598Z,98.40
2018-12-29T17:35:30.272Z,98.50
2018-12-29T17:37:59.670Z,98.40
2018-12-29T17:40:29.323Z,98.40
2018-12-29T17:42:58.729Z,98.40
2018-12-29T17:45:28.076Z,98.20
2018-12-29T17:47:57.837Z,98.30
2018-12-29T17:50:27.967Z,98.20
2018-12-29T17:52:57.339Z,98.20
2018-12-29T17:55:26.990Z,97.90
2018-12-29T17:57:56.347Z,98.00
2018-12-29T18:00:26.306Z,98.00
2018-12-29T18:02:55.968Z,98.20
2018-12-29T18:05:25.933Z,97.90
2018-12-29T18:07:55.789Z,97.80
2018-12-29T18:10:25.604Z,97.90
2018-12-29T18:12:55.263Z,97.90
2018-12-29T18:15:24.965Z,97.90
2018-12-29T18:17:54.594Z,97.80
2018-12-29T18:20:24.224Z,97.70
2018-12-29T18:22:53.568Z,97.70
2018-12-29T18:25:23.549Z,97.70
2018-12-29T18:27:52.911Z,97.80
2018-12-29T18:30:22.359Z,97.70
2018-12-29T18:32:51.945Z,97.60
2018-12-29T18:35:21.333Z,97.60
2018-12-29T18:37:50.718Z,97.50
2018-12-29T18:40:20.431Z,97.40
2018-12-29T18:42:50.188Z,97.60
2018-12-29T18:45:19.813Z,97.60
2018-12-29T18:47:49.225Z,97.50
2018-12-29T18:50:18.691Z,97.60
2018-12-29T18:52:48.198Z,97.70
2018-12-29T18:55:17.884Z,97.60
2018-12-29T18:57:47.914Z,97.50
2018-12-29T19:00:17.269Z,97.60
2018-12-29T19:02:46.644Z,97.50
2018-12-29T19:05:16.301Z,97.60
2018-12-29T19:07:45.940Z,97.60
2018-12-29T19:10:15.396Z,97.60
2018-12-29T19:12:44.783Z,97.50
2018-12-29T19:15:14.256Z,97.60
2018-12-29T19:17:44.010Z,97.60
2018-12-29T19:20:13.587Z,97.60
2018-12-29T19:22:42.944Z,97.60
2018-12-29T19:25:12.700Z,97.60
2018-12-29T19:27:42.418Z,97.80
2018-12-29T19:30:11.805Z,97.80
2018-12-29T19:32:41.715Z,97.70
2018-12-29T19:35:11.090Z,97.80
2018-12-29T19:37:40.477Z,97.80
2018-12-29T19:40:10.379Z,97.80
2018-12-29T19:42:41.795Z,97.80
2018-12-29T19:45:11.465Z,97.80
2018-12-29T19:47:41.339Z,97.80
2018-12-29T19:50:11.184Z,97.70
2018-12-29T19:52:43.801Z,97.80
2018-12-29T19:55:14.013Z,97.80
2018-12-29T19:57:43.648Z,97.80
2018-12-29T20:00:13.356Z,97.80
2018-12-29T20:02:43.115Z,97.80
2018-12-29T20:05:13.117Z,97.80
2018-12-29T20:07:42.870Z,97.80
2018-12-29T20:10:12.903Z,97.90
2018-12-29T20:12:42.872Z,97.70
2018-12-29T20:15:12.887Z,97.80
2018-12-29T20:17:42.253Z,97.80
2018-12-29T20:20:11.588Z,97.70
2018-12-29T20:22:40.945Z,97.80
2018-12-29T20:25:10.290Z,97.80
2018-12-29T20:27:39.644Z,97.80
2018-12-29T20:30:10.323Z,97.80
2018-12-29T20:32:39.946Z,97.80
2018-12-29T20:35:09.552Z,97.70
2018-12-29T20:37:39.187Z,97.80
2018-12-29T20:40:08.910Z,97.70
2018-12-29T20:42:38.488Z,97.70
2018-12-29T20:45:07.871Z,97.70
2018-12-29T20:47:37.242Z,97.70
2018-12-29T20:50:09.619Z,97.70
2018-12-29T20:52:39.286Z,97.60
2018-12-29T20:55:08.747Z,97.60
2018-12-29T20:57:38.293Z,97.60
2018-12-29T21:00:09.111Z,97.40
2018-12-29T21:02:41.741Z,97.40
2018-12-29T21:05:11.307Z,97.20
2018-12-29T21:07:40.661Z,97.20
2018-12-29T21:10:10.073Z,97.20
2018-12-29T21:12:39.426Z,97.20
2018-12-29T21:15:08.794Z,97.20
2018-12-29T21:17:38.714Z,97.10
2018-12-29T21:20:08.075Z,97.00
2018-12-29T21:22:37.707Z,96.90
2018-12-29T21:25:07.332Z,97.00
2018-12-29T21:27:36.995Z,96.80
2018-12-29T21:30:06.439Z,96.80
2018-12-29T21:32:35.831Z,96.70
2018-12-29T21:35:05.988Z,96.60
2018-12-29T21:37:35.365Z,96.60
2018-12-29T21:40:05.100Z,96.50
2018-12-29T21:42:34.765Z,96.40
2018-12-29T21:45:04.160Z,96.40
2018-12-29T21:47:34.163Z,96.40
2018-12-29T21:50:03.564Z,96.40
2018-12-29T21:52:33.019Z,96.50
2018-12-29T21:55:02.412Z,96.40
2018-12-29T21:57:32.012Z,96.40
2018-12-29T22:00:01.408Z,96.20
2018-12-29T22:02:30.846Z,96.10
2018-12-29T22:05:00.354Z,95.90
2018-12-29T22:07:29.944Z,95.80
2018-12-29T22:09:59.499Z,95.40
2018-12-29T22:12:28.823Z,95.20
2018-12-29T22:14:58.164Z,95.20
2018-12-29T22:17:27.543Z,95.30
2018-12-29T22:19:58.343Z,95.20
2018-12-29T22:22:28.100Z,95.20
2018-12-29T22:24:57.784Z,95.40
2018-12-29T22:27:27.400Z,95.10
2018-12-29T22:29:57.087Z,94.90
2018-12-29T22:32:26.554Z,94.80
2018-12-29T22:34:56.246Z,94.70
2018-12-29T22:37:25.719Z,94.50
2018-12-29T22:39:55.086Z,94.20
2018-12-29T22:42:24.750Z,93.80
2018-12-29T22:44:54.161Z,93.90
2018-12-29T22:47:24.000Z,93.80
2018-12-29T22:49:53.604Z,93.70
2018-12-29T22:52:23.935Z,93.60
2018-12-29T22:54:53.575Z,93.40
2018-12-29T22:57:22.982Z,93.30
2018-12-29T22:59:53.034Z,92.90
2018-12-29T23:02:22.724Z,92.70
2018-12-29T23:04:52.095Z,92.10
2018-12-29T23:07:23.267Z,92.00
2018-12-29T23:09:52.632Z,92.10
2018-12-29T23:12:22.276Z,91.70
2018-12-29T23:14:52.069Z,91.20
2018-12-29T23:17:21.418Z,91.10
2018-12-29T23:19:52.934Z,91.30
2018-12-29T23:22:22.662Z,90.80
2018-12-29T23:24:52.652Z,90.70
2018-12-29T23:27:22.120Z,90.50
2018-12-29T23:29:52.095Z,89.90
2018-12-29T23:32:21.495Z,90.40
2018-12-29T23:34:50.931Z,89.40
2018-12-29T23:37:20.250Z,89.20
2018-12-29T23:39:49.935Z,88.50
2018-12-29T23:42:19.327Z,88.90
2018-12-29T23:44:48.653Z,88.50
2018-12-29T23:47:18.024Z,88.60
2018-12-29T23:49:47.537Z,88.20
2018-12-29T23:52:17.245Z,88.80
2018-12-29T23:54:46.592Z,88.40
2018-12-29T23:57:16.287Z,87.90
2018-12-29T23:59:45.619Z,87.90
